Aviation Digital Data Service (ADDS)

Output produced by TAFs form (0234 UTC 22 July 2017)
found at http://www.aviationweather.gov/adds/tafs/
 
KRIC 212330Z 2200/2224 22005KT P6SM SCT100 SCT250 
     FM221600 25008KT P6SM SCT060